createdAt,value
2019-05-20T00:01:19.181Z,14.30
2019-05-20T00:03:48.112Z,14.30
2019-05-20T00:06:17.182Z,14.20
2019-05-20T00:08:46.071Z,14.20
2019-05-20T00:11:15.068Z,14.20
2019-05-20T00:13:44.276Z,14.10
2019-05-20T00:16:16.478Z,14.00
2019-05-20T00:18:45.434Z,14.00
2019-05-20T00:21:14.661Z,14.00
2019-05-20T00:23:43.594Z,14.00
2019-05-20T00:26:12.896Z,13.90
2019-05-20T00:28:42.125Z,13.90
2019-05-20T00:31:11.121Z,14.00
2019-05-20T00:33:40.110Z,14.10
2019-05-20T00:36:09.071Z,14.10
2019-05-20T00:38:38.027Z,14.10
2019-05-20T00:41:07.061Z,14.00
2019-05-20T00:43:36.034Z,14.00
2019-05-20T00:46:05.328Z,14.00
2019-05-20T00:48:34.369Z,13.90
2019-05-20T00:51:05.782Z,13.90
2019-05-20T00:53:35.144Z,13.80
2019-05-20T00:56:04.525Z,13.80
2019-05-20T00:58:33.549Z,13.70
2019-05-20T01:01:02.521Z,13.70
2019-05-20T01:03:31.528Z,13.60
2019-05-20T01:06:00.597Z,13.80
2019-05-20T01:08:29.623Z,13.80
2019-05-20T01:10:58.585Z,13.90
2019-05-20T01:13:27.520Z,13.80
2019-05-20T01:15:56.545Z,13.80
2019-05-20T01:18:25.738Z,13.70
2019-05-20T01:20:55.056Z,13.70
2019-05-20T01:23:23.942Z,13.70
2019-05-20T01:25:52.899Z,13.70
2019-05-20T01:28:21.868Z,13.70
2019-05-20T01:30:51.104Z,13.80
2019-05-20T01:33:20.063Z,13.90
2019-05-20T01:35:49.018Z,13.90
2019-05-20T01:38:17.997Z,13.80
2019-05-20T01:40:46.963Z,13.80
2019-05-20T01:43:15.942Z,13.70
2019-05-20T01:45:44.900Z,13.70
2019-05-20T01:48:13.874Z,13.70
2019-05-20T01:50:43.193Z,13.80
2019-05-20T01:53:12.229Z,13.80
2019-05-20T01:55:41.177Z,13.70
2019-05-20T01:58:10.150Z,13.80
2019-05-20T02:00:39.148Z,13.80
2019-05-20T02:03:08.124Z,13.70
2019-05-20T02:05:37.111Z,13.60
2019-05-20T02:08:06.108Z,13.50
2019-05-20T02:10:35.168Z,13.50
2019-05-20T02:13:04.229Z,13.40
2019-05-20T02:15:45.028Z,13.30
2019-05-20T02:18:14.024Z,13.30
2019-05-20T02:20:42.981Z,13.30
2019-05-20T02:23:15.456Z,13.20
2019-05-20T02:25:49.704Z,13.20
2019-05-20T02:28:19.145Z,13.20
2019-05-20T02:30:48.186Z,13.10
2019-05-20T02:33:17.405Z,13.10
2019-05-20T02:35:46.470Z,13.10
2019-05-20T02:38:15.429Z,13.10
2019-05-20T02:40:44.666Z,13.00
2019-05-20T02:43:13.681Z,13.00
2019-05-20T02:45:42.795Z,12.90
2019-05-20T02:48:12.127Z,12.90
2019-05-20T02:50:41.074Z,12.90
2019-05-20T02:53:10.029Z,12.80
2019-05-20T02:55:39.385Z,12.80
2019-05-20T02:58:08.407Z,12.80
2019-05-20T03:00:37.646Z,12.80
2019-05-20T03:03:06.744Z,12.90
2019-05-20T03:05:35.749Z,13.00
2019-05-20T03:08:04.770Z,12.90
2019-05-20T03:10:33.819Z,12.90
2019-05-20T03:13:02.894Z,12.80
2019-05-20T03:15:31.936Z,12.80
2019-05-20T03:18:00.891Z,12.80
2019-05-20T03:20:29.853Z,12.80
2019-05-20T03:22:58.993Z,12.70
2019-05-20T03:25:27.962Z,12.70
2019-05-20T03:27:56.918Z,12.70
2019-05-20T03:30:26.209Z,12.80
2019-05-20T03:32:55.346Z,12.70
2019-05-20T03:35:24.569Z,12.70
2019-05-20T03:37:53.988Z,12.80
2019-05-20T03:40:23.039Z,12.80
2019-05-20T03:42:51.994Z,12.80
2019-05-20T03:45:21.365Z,12.80
2019-05-20T03:47:50.309Z,12.90
2019-05-20T03:50:19.609Z,13.00
2019-05-20T03:52:48.554Z,13.10
2019-05-20T03:55:17.685Z,13.10
2019-05-20T03:57:46.711Z,13.20
2019-05-20T04:00:17.553Z,13.30
2019-05-20T04:02:46.508Z,13.40
2019-05-20T04:05:15.551Z,13.50
2019-05-20T04:07:44.547Z,13.50
2019-05-20T04:10:14.622Z,13.70
2019-05-20T04:12:43.521Z,13.80
2019-05-20T04:15:12.640Z,13.90
2019-05-20T04:17:41.678Z,14.00
2019-05-20T04:20:11.141Z,14.00
2019-05-20T04:22:40.210Z,14.10
2019-05-20T04:25:09.332Z,14.20
2019-05-20T04:27:38.370Z,14.20
2019-05-20T04:30:07.837Z,14.20
2019-05-20T04:32:36.779Z,14.20
2019-05-20T04:35:20.457Z,14.30
2019-05-20T04:37:37.172Z,14.40
2019-05-20T04:40:06.720Z,14.50
2019-05-20T04:42:35.792Z,14.50
2019-05-20T04:45:05.841Z,14.50
2019-05-20T04:47:34.926Z,14.50
2019-05-20T04:50:04.093Z,14.50
2019-05-20T04:52:33.122Z,14.50
2019-05-20T04:55:02.096Z,14.60
2019-05-20T04:57:31.138Z,14.60
2019-05-20T05:00:00.251Z,14.80
2019-05-20T05:02:29.353Z,14.90
2019-05-20T05:04:58.310Z,15.10
2019-05-20T05:07:27.393Z,15.20
2019-05-20T05:09:56.501Z,15.30
2019-05-20T05:12:25.476Z,15.50
2019-05-20T05:14:54.589Z,15.50
2019-05-20T05:17:23.652Z,15.50
2019-05-20T05:19:53.012Z,15.60
2019-05-20T05:22:22.239Z,15.60
2019-05-20T05:24:51.334Z,15.60
2019-05-20T05:27:20.381Z,15.70
2019-05-20T05:29:49.493Z,15.70
2019-05-20T05:32:37.602Z,15.90
2019-05-20T05:35:06.846Z,16.10
2019-05-20T05:37:35.927Z,16.40
2019-05-20T05:40:08.180Z,16.60
2019-05-20T05:42:36.364Z,16.80
2019-05-20T05:45:08.755Z,17.00
2019-05-20T05:47:37.855Z,17.10
2019-05-20T05:50:08.803Z,17.10
2019-05-20T05:52:38.200Z,17.20
2019-05-20T05:55:07.668Z,17.10
2019-05-20T05:57:36.737Z,17.10
2019-05-20T06:00:06.562Z,17.00
2019-05-20T06:02:35.546Z,17.00
2019-05-20T06:05:04.918Z,17.00
2019-05-20T06:07:33.919Z,17.10
2019-05-20T06:10:02.885Z,17.30
2019-05-20T06:12:32.549Z,17.30
2019-05-20T06:15:01.501Z,17.40
2019-05-20T06:17:30.924Z,17.50
2019-05-20T06:20:00.474Z,17.60
2019-05-20T06:22:29.816Z,17.70
2019-05-20T06:24:59.105Z,17.70
2019-05-20T06:27:28.365Z,17.80
2019-05-20T06:29:57.319Z,17.90
2019-05-20T06:32:26.442Z,18.00
2019-05-20T06:34:55.564Z,18.00
2019-05-20T06:37:26.396Z,18.00
2019-05-20T06:39:55.426Z,18.00
2019-05-20T06:42:24.413Z,18.10
2019-05-20T06:44:57.135Z,18.30
2019-05-20T06:47:24.309Z,18.60
2019-05-20T06:49:53.342Z,18.80
2019-05-20T06:52:35.342Z,19.10
2019-05-20T06:54:53.019Z,19.50
2019-05-20T06:57:23.947Z,19.90
2019-05-20T06:59:53.289Z,20.20
2019-05-20T07:02:22.342Z,20.30
2019-05-20T07:04:53.522Z,20.30
2019-05-20T07:07:22.756Z,20.40
2019-05-20T07:09:52.321Z,20.60
2019-05-20T07:12:21.291Z,20.90
2019-05-20T07:14:50.648Z,21.50
2019-05-20T07:17:20.075Z,22.50
2019-05-20T07:19:49.293Z,24.10
2019-05-20T07:22:18.355Z,24.60
2019-05-20T07:24:47.316Z,24.50
2019-05-20T07:27:16.385Z,24.30
2019-05-20T07:29:45.453Z,25.10
2019-05-20T07:32:14.398Z,25.90
2019-05-20T07:34:43.398Z,25.60
2019-05-20T07:37:12.430Z,25.50
2019-05-20T07:39:41.692Z,26.90
2019-05-20T07:42:10.685Z,28.40
2019-05-20T07:44:39.725Z,28.90
2019-05-20T07:47:10.984Z,29.80
2019-05-20T07:49:40.104Z,30.10
2019-05-20T07:52:09.625Z,31.00
2019-05-20T07:54:38.802Z,33.20
2019-05-20T07:57:13.284Z,34.70
2019-05-20T07:59:44.874Z,36.10
2019-05-20T08:02:13.956Z,34.90
2019-05-20T08:04:42.997Z,34.50
2019-05-20T08:07:26.531Z,33.80
2019-05-20T08:09:46.189Z,33.60
2019-05-20T08:12:13.671Z,33.80
2019-05-20T08:14:42.780Z,34.90
2019-05-20T08:17:12.007Z,36.20
2019-05-20T08:19:41.045Z,35.40
2019-05-20T08:22:10.106Z,34.90
2019-05-20T08:24:39.505Z,35.90
2019-05-20T08:27:08.608Z,36.40
2019-05-20T08:29:38.031Z,37.10
2019-05-20T08:32:07.080Z,38.10
2019-05-20T08:34:36.686Z,38.50
2019-05-20T08:37:06.444Z,38.30
2019-05-20T08:39:35.426Z,37.80
2019-05-20T08:42:04.514Z,37.60
2019-05-20T08:44:33.926Z,38.20
2019-05-20T08:47:03.069Z,37.60
2019-05-20T08:49:32.074Z,36.90
2019-05-20T08:52:01.082Z,37.80
2019-05-20T08:54:30.070Z,38.50
2019-05-20T08:56:59.036Z,38.40
2019-05-20T08:59:28.061Z,37.70
2019-05-20T09:01:57.053Z,36.80
2019-05-20T09:04:26.870Z,37.40
2019-05-20T09:06:55.761Z,37.50
2019-05-20T09:09:24.990Z,35.70
2019-05-20T09:11:54.127Z,35.70
2019-05-20T09:14:23.161Z,35.90
2019-05-20T09:16:52.361Z,36.30
2019-05-20T09:19:21.361Z,36.80
2019-05-20T09:21:50.421Z,37.20
2019-05-20T09:24:19.515Z,36.80
2019-05-20T09:26:48.583Z,37.30
2019-05-20T09:29:17.588Z,38.00
2019-05-20T09:31:46.701Z,38.70
2019-05-20T09:34:15.709Z,38.40
2019-05-20T09:36:44.835Z,38.50
2019-05-20T09:39:13.848Z,39.10
2019-05-20T09:41:42.805Z,39.80
2019-05-20T09:44:11.840Z,39.00
2019-05-20T09:46:40.874Z,39.20
2019-05-20T09:49:10.152Z,38.70
2019-05-20T09:51:39.268Z,38.60
2019-05-20T09:54:08.386Z,38.50
2019-05-20T09:56:37.870Z,37.80
2019-05-20T09:59:06.954Z,37.90
2019-05-20T10:01:39.531Z,38.40
2019-05-20T10:04:06.604Z,36.60
2019-05-20T10:06:35.599Z,33.90
2019-05-20T10:09:06.388Z,32.50
2019-05-20T10:11:35.608Z,32.20
2019-05-20T10:14:04.704Z,32.30
2019-05-20T10:16:33.785Z,32.10
2019-05-20T10:19:02.848Z,31.50
2019-05-20T10:21:31.908Z,30.70
2019-05-20T10:24:00.938Z,30.10
2019-05-20T10:26:30.254Z,29.70
2019-05-20T10:28:59.339Z,29.40
2019-05-20T10:31:28.371Z,29.60
2019-05-20T10:33:57.313Z,29.50
2019-05-20T10:36:26.646Z,29.30
2019-05-20T10:38:59.075Z,29.00
2019-05-20T10:41:29.466Z,28.60
2019-05-20T10:43:57.353Z,28.00
2019-05-20T10:46:26.374Z,27.50
2019-05-20T10:48:55.377Z,27.20
2019-05-20T10:51:24.505Z,27.00
2019-05-20T10:53:53.820Z,27.10
2019-05-20T10:56:22.721Z,27.20
2019-05-20T10:58:52.074Z,27.20
2019-05-20T11:01:21.033Z,27.40
2019-05-20T11:03:49.980Z,27.50
2019-05-20T11:06:18.992Z,27.40
2019-05-20T11:08:47.941Z,27.40
2019-05-20T11:11:17.009Z,27.40
2019-05-20T11:13:45.961Z,27.40
2019-05-20T11:16:15.003Z,27.40
2019-05-20T11:18:44.321Z,27.40
2019-05-20T11:21:13.411Z,27.60
2019-05-20T11:23:42.371Z,27.80
2019-05-20T11:26:11.389Z,27.90
2019-05-20T11:28:40.536Z,28.10
2019-05-20T11:31:09.637Z,28.30
2019-05-20T11:33:38.578Z,28.50
2019-05-20T11:36:07.758Z,28.80
2019-05-20T11:38:36.885Z,29.30
2019-05-20T11:41:05.917Z,29.40
2019-05-20T11:43:34.945Z,29.30
2019-05-20T11:46:04.041Z,29.10
2019-05-20T11:48:33.148Z,28.80
2019-05-20T11:51:02.167Z,28.40
2019-05-20T11:53:31.194Z,28.10
2019-05-20T11:56:02.292Z,27.90
2019-05-20T11:58:31.248Z,27.70
2019-05-20T12:01:00.251Z,27.40
2019-05-20T12:03:29.369Z,27.00
2019-05-20T12:05:58.382Z,26.80
2019-05-20T12:08:27.683Z,26.70
2019-05-20T12:10:56.729Z,26.80
2019-05-20T12:13:25.788Z,26.80
2019-05-20T12:15:54.739Z,26.90
2019-05-20T12:18:23.772Z,27.20
2019-05-20T12:20:52.728Z,27.30
2019-05-20T12:23:21.962Z,27.40
2019-05-20T12:25:50.908Z,27.30
2019-05-20T12:28:19.986Z,27.10
2019-05-20T12:30:48.940Z,26.90
2019-05-20T12:33:19.567Z,26.70
2019-05-20T12:35:49.069Z,26.50
2019-05-20T12:38:18.083Z,26.60
2019-05-20T12:40:47.293Z,26.60
2019-05-20T12:43:16.364Z,26.60
2019-05-20T12:45:45.365Z,26.50
2019-05-20T12:48:14.419Z,26.50
2019-05-20T12:50:43.513Z,26.30
2019-05-20T12:53:12.584Z,26.30
2019-05-20T12:55:41.921Z,26.20
2019-05-20T12:58:10.950Z,25.90
2019-05-20T13:00:39.994Z,25.70
2019-05-20T13:03:08.952Z,25.50
2019-05-20T13:05:37.978Z,25.20
2019-05-20T13:08:07.098Z,24.90
2019-05-20T13:10:36.525Z,24.80
2019-05-20T13:13:05.602Z,24.60
2019-05-20T13:15:34.876Z,24.50
2019-05-20T13:18:03.946Z,24.40
2019-05-20T13:20:32.900Z,24.20
2019-05-20T13:23:02.611Z,24.10
2019-05-20T13:25:32.644Z,24.00
2019-05-20T13:28:01.699Z,23.90
2019-05-20T13:30:30.876Z,23.70
2019-05-20T13:32:59.901Z,23.60
2019-05-20T13:35:28.992Z,23.40
2019-05-20T13:37:57.960Z,23.30
2019-05-20T13:40:42.976Z,23.20
2019-05-20T13:42:57.645Z,23.10
2019-05-20T13:45:26.809Z,23.00
2019-05-20T13:47:55.771Z,22.90
2019-05-20T13:50:24.913Z,22.80
2019-05-20T13:52:54.065Z,22.70
2019-05-20T13:55:23.305Z,22.50
2019-05-20T13:57:52.269Z,22.40
2019-05-20T14:00:22.068Z,22.30
2019-05-20T14:02:51.016Z,22.20
2019-05-20T14:05:20.053Z,22.10
2019-05-20T14:07:49.046Z,21.90
2019-05-20T14:10:18.221Z,21.90
2019-05-20T14:12:47.157Z,21.80
2019-05-20T14:15:17.736Z,21.60
2019-05-20T14:17:46.933Z,21.60
2019-05-20T14:20:17.312Z,21.50
2019-05-20T14:22:46.264Z,21.30
2019-05-20T14:25:15.387Z,21.20
2019-05-20T14:27:44.509Z,21.10
2019-05-20T14:30:14.027Z,21.00
2019-05-20T14:32:42.984Z,20.90
2019-05-20T14:35:12.556Z,20.70
2019-05-20T14:37:41.601Z,20.70
2019-05-20T14:40:11.318Z,20.70
2019-05-20T14:42:40.269Z,20.50
2019-05-20T14:45:09.685Z,20.30
2019-05-20T14:47:38.721Z,20.00
2019-05-20T14:50:08.269Z,19.70
2019-05-20T14:52:37.260Z,19.60
2019-05-20T14:55:06.468Z,19.40
2019-05-20T14:57:35.537Z,19.30
2019-05-20T15:00:05.281Z,19.20
2019-05-20T15:02:34.624Z,19.00
2019-05-20T15:05:03.614Z,18.80
2019-05-20T15:07:32.610Z,18.80
2019-05-20T15:10:01.641Z,18.70
2019-05-20T15:12:30.627Z,18.70
2019-05-20T15:14:59.639Z,18.50
2019-05-20T15:17:28.680Z,18.40
2019-05-20T15:19:57.661Z,18.30
2019-05-20T15:22:26.693Z,18.30
2019-05-20T15:24:55.768Z,18.20
2019-05-20T15:27:24.902Z,18.10
2019-05-20T15:29:54.194Z,17.90
2019-05-20T15:32:23.245Z,17.70
2019-05-20T15:34:52.502Z,17.40
2019-05-20T15:37:21.624Z,17.20
2019-05-20T15:39:50.851Z,17.10
2019-05-20T15:42:20.034Z,17.00
2019-05-20T15:44:49.151Z,16.90
2019-05-20T15:47:18.901Z,17.00
2019-05-20T15:49:48.386Z,17.00
2019-05-20T15:52:17.690Z,17.00
2019-05-20T15:54:46.716Z,16.90
2019-05-20T15:57:15.773Z,16.90
2019-05-20T15:59:46.624Z,17.00
2019-05-20T16:02:15.440Z,17.00
2019-05-20T16:04:44.777Z,17.00
2019-05-20T16:07:13.879Z,17.00
2019-05-20T16:09:42.969Z,16.90
2019-05-20T16:12:12.017Z,16.90
2019-05-20T16:14:41.090Z,16.90
2019-05-20T16:17:10.096Z,17.00
2019-05-20T16:19:39.155Z,17.00
2019-05-20T16:22:08.384Z,17.00
2019-05-20T16:24:37.599Z,17.00
2019-05-20T16:27:06.908Z,17.10
2019-05-20T16:29:35.929Z,17.20
2019-05-20T16:32:05.020Z,17.30
2019-05-20T16:34:34.058Z,17.50
2019-05-20T16:37:03.296Z,17.60
2019-05-20T16:39:32.385Z,17.70
2019-05-20T16:42:01.738Z,17.90
2019-05-20T16:44:31.013Z,18.00
2019-05-20T16:46:59.984Z,18.10
2019-05-20T16:49:29.207Z,18.20
2019-05-20T16:52:00.820Z,18.20
2019-05-20T16:54:29.810Z,18.30
2019-05-20T16:56:58.791Z,18.50
2019-05-20T16:59:27.937Z,18.80
2019-05-20T17:01:57.102Z,19.00
2019-05-20T17:04:26.232Z,19.20
2019-05-20T17:06:55.587Z,19.30
2019-05-20T17:09:24.598Z,19.30
2019-05-20T17:11:53.587Z,19.20
2019-05-20T17:14:22.861Z,19.20
2019-05-20T17:16:51.887Z,19.10
2019-05-20T17:19:20.880Z,19.00
2019-05-20T17:21:50.044Z,18.90
2019-05-20T17:24:19.182Z,18.90
2019-05-20T17:26:48.337Z,18.90
2019-05-20T17:29:17.350Z,18.80
2019-05-20T17:31:46.350Z,18.80
2019-05-20T17:34:15.393Z,18.70
2019-05-20T17:36:44.440Z,18.60
2019-05-20T17:39:13.519Z,18.60
2019-05-20T17:41:42.644Z,18.60
2019-05-20T17:44:11.750Z,18.50
2019-05-20T17:46:40.922Z,18.50
2019-05-20T17:49:10.409Z,18.50
2019-05-20T17:51:43.059Z,18.50
2019-05-20T17:54:10.129Z,18.50
2019-05-20T17:56:39.209Z,18.50
2019-05-20T17:59:08.160Z,18.50
2019-05-20T18:01:37.191Z,18.50
2019-05-20T18:04:06.213Z,18.50
2019-05-20T18:06:35.612Z,18.50
2019-05-20T18:09:07.048Z,18.50
2019-05-20T18:11:36.128Z,18.50
2019-05-20T18:14:05.420Z,18.50
2019-05-20T18:16:35.361Z,18.50
2019-05-20T18:19:04.737Z,18.40
2019-05-20T18:21:33.772Z,18.40
2019-05-20T18:24:02.861Z,18.40
2019-05-20T18:26:32.111Z,18.40
2019-05-20T18:29:01.186Z,18.40
2019-05-20T18:31:32.786Z,18.30
2019-05-20T18:34:01.185Z,18.20
2019-05-20T18:36:30.307Z,18.10
2019-05-20T18:38:59.351Z,18.00
2019-05-20T18:41:28.359Z,18.00
2019-05-20T18:43:57.332Z,17.90
2019-05-20T18:46:26.440Z,17.80
2019-05-20T18:48:55.448Z,17.70
2019-05-20T18:51:24.497Z,17.60
2019-05-20T18:53:53.475Z,17.50
2019-05-20T18:56:22.459Z,17.40
2019-05-20T18:58:51.771Z,17.40
2019-05-20T19:01:20.703Z,17.40
2019-05-20T19:03:49.814Z,17.30
2019-05-20T19:06:18.780Z,17.30
2019-05-20T19:08:48.040Z,17.30
2019-05-20T19:11:17.357Z,17.20
2019-05-20T19:13:46.466Z,17.20
2019-05-20T19:16:15.573Z,17.10
2019-05-20T19:18:44.587Z,17.00
2019-05-20T19:21:13.656Z,17.10
2019-05-20T19:23:42.632Z,17.10
2019-05-20T19:26:23.746Z,17.10
2019-05-20T19:28:42.442Z,17.10
2019-05-20T19:31:11.743Z,17.10
2019-05-20T19:33:40.740Z,17.00
2019-05-20T19:36:09.827Z,17.10
2019-05-20T19:38:39.178Z,17.00
2019-05-20T19:41:08.536Z,17.10
2019-05-20T19:43:37.501Z,17.00
2019-05-20T19:46:08.521Z,17.00
2019-05-20T19:48:37.903Z,16.90
2019-05-20T19:51:06.832Z,16.70
2019-05-20T19:53:35.820Z,16.70
2019-05-20T19:56:04.854Z,16.60
2019-05-20T19:58:33.823Z,16.50
2019-05-20T20:01:02.801Z,16.40
2019-05-20T20:03:31.768Z,16.40
2019-05-20T20:06:00.710Z,16.30
2019-05-20T20:08:29.714Z,16.30
2019-05-20T20:10:58.727Z,16.20
2019-05-20T20:13:27.778Z,16.10
2019-05-20T20:15:56.727Z,16.00
2019-05-20T20:18:25.824Z,15.90
2019-05-20T20:20:54.780Z,15.90
2019-05-20T20:23:24.536Z,15.80
2019-05-20T20:25:53.592Z,15.80
2019-05-20T20:28:22.637Z,15.70
2019-05-20T20:30:52.010Z,15.70
2019-05-20T20:33:21.031Z,15.60
2019-05-20T20:35:50.076Z,15.60
2019-05-20T20:38:19.120Z,15.60
2019-05-20T20:40:48.149Z,15.50
2019-05-20T20:43:17.136Z,15.40
2019-05-20T20:45:46.116Z,15.40
2019-05-20T20:48:15.083Z,15.40
2019-05-20T20:50:44.263Z,15.30
2019-05-20T20:53:13.293Z,15.30
2019-05-20T20:55:42.376Z,15.20
2019-05-20T20:58:11.347Z,15.10
2019-05-20T21:00:40.661Z,15.00
2019-05-20T21:03:09.615Z,15.00
2019-05-20T21:05:38.651Z,14.90
2019-05-20T21:08:07.677Z,14.80
2019-05-20T21:10:36.857Z,14.70
2019-05-20T21:13:05.962Z,14.60
2019-05-20T21:15:35.396Z,14.50
2019-05-20T21:18:04.577Z,14.40
2019-05-20T21:20:33.595Z,14.40
2019-05-20T21:23:02.610Z,14.40
2019-05-20T21:25:31.794Z,14.40
2019-05-20T21:28:00.914Z,14.30
2019-05-20T21:30:29.996Z,14.30
2019-05-20T21:33:08.884Z,14.20
2019-05-20T21:35:29.793Z,14.30
2019-05-20T21:37:58.820Z,14.20
2019-05-20T21:40:27.923Z,14.10
2019-05-20T21:42:57.008Z,14.00
2019-05-20T21:45:26.070Z,13.90
2019-05-20T21:47:55.220Z,13.90
2019-05-20T21:50:24.241Z,13.90
2019-05-20T21:52:53.339Z,14.00
2019-05-20T21:55:22.404Z,14.00
2019-05-20T21:57:51.427Z,13.90
2019-05-20T22:00:27.524Z,13.90
2019-05-20T22:02:57.336Z,14.00
2019-05-20T22:05:26.473Z,13.90
2019-05-20T22:07:55.591Z,13.90
2019-05-20T22:10:24.709Z,13.90
2019-05-20T22:12:53.786Z,13.80
2019-05-20T22:15:22.945Z,13.80
2019-05-20T22:17:52.515Z,13.70
2019-05-20T22:20:21.648Z,13.60
2019-05-20T22:23:10.073Z,13.60
2019-05-20T22:25:39.337Z,13.60
2019-05-20T22:28:12.420Z,13.50
2019-05-20T22:30:39.210Z,13.50
2019-05-20T22:33:08.569Z,13.50
2019-05-20T22:35:37.712Z,13.50
2019-05-20T22:38:06.876Z,13.70
2019-05-20T22:40:36.176Z,13.70
2019-05-20T22:43:05.567Z,13.70
2019-05-20T22:45:35.171Z,13.60
2019-05-20T22:48:04.564Z,13.50
2019-05-20T22:50:33.779Z,13.50
2019-05-20T22:53:02.732Z,13.40
2019-05-20T22:55:31.771Z,13.40
2019-05-20T22:58:00.764Z,13.40
2019-05-20T23:00:29.824Z,13.30
2019-05-20T23:02:58.914Z,13.20
2019-05-20T23:05:27.970Z,13.20
2019-05-20T23:07:57.052Z,13.10
2019-05-20T23:10:26.244Z,13.20
2019-05-20T23:12:55.605Z,13.30
2019-05-20T23:15:24.544Z,13.30
2019-05-20T23:17:53.543Z,13.20
2019-05-20T23:20:22.661Z,13.20
2019-05-20T23:22:51.635Z,13.10
2019-05-20T23:25:20.650Z,13.00
2019-05-20T23:27:49.597Z,12.90
2019-05-20T23:30:19.085Z,12.90
2019-05-20T23:32:48.106Z,12.80
2019-05-20T23:35:17.060Z,12.80
2019-05-20T23:37:46.027Z,12.70
2019-05-20T23:40:15.122Z,12.60
2019-05-20T23:42:44.362Z,12.60
2019-05-20T23:45:14.008Z,12.60
2019-05-20T23:47:42.965Z,12.60
2019-05-20T23:50:11.972Z,12.50
2019-05-20T23:52:41.011Z,12.50
2019-05-20T23:55:10.891Z,12.60
2019-05-20T23:57:39.948Z,12.50
